Terminal Aerodrome Forecast
Issued by NWS

Home | Current Version | Previous Version | Text Only | Print | Product List | Glossary On
Versions: 1 2 3 4 5 6 7 8 9 10 11 12 13 14 15 16 17 18 19 20 21 22 23
000
FTUS45 KCYS 222320
TAFAIA
TAF
KAIA 222320Z 2300/2324 26010KT P6SM SCT040 BKN070
     FM230600 31012G22KT P6SM -SHRA SCT020 OVC040
     FM230800 32014G25KT 2SM -SN SCT010 OVC020
     FM231400 30025G40KT P6SM SCT020 BKN070=

USA.gov is the U.S. government's official web portal to all federal, state and local government web resources and services.